^^
Station Historical Data
Daily Summary for January 13, 2017 Units:  English    Metric   Both
« Previous Day
Next Day »
Daily Weekly Monthly Yearly Custom
  High: Low: Average:
Temperature: 59.9 °F 28.7 °F 42.5 °F
Dew Point: 54.0 °F 15.7 °F 30.3 °F
Humidity: 83% 44% 63%
Wind Speed: 7.0mph 0.0mph 3mph
Wind Gust: 17.0mph - -
Wind- - SW
Pressure: 30.70 in 30.08 in -
Precipitation: 0.00 in    
Historical Graphs
 
 
Tabular Data for January 13, 2017
Time Temperature Dew Point Pressure Wind Wind Speed Wind Gust Humidity Rainfall Rate (Hourly) Conditions
00:00 59.9 °F 53.0 °F 30.08 in SW 7.0 mph 15.0 mph 78% 0.00 in RA
00:10 59.8 °F 53.0 °F 30.08 in SW 5.0 mph 17.0 mph 78% 0.00 in BKN
00:20 59.7 °F 53.2 °F 30.08 in SW 2.0 mph 10.0 mph 79% 0.00 in BKN
00:30 59.5 °F 53.7 °F 30.09 in SW 5.0 mph 12.0 mph 81% 0.00 in BKN
00:40 59.2 °F 53.7 °F 30.09 in SW 2.0 mph 8.0 mph 82% 0.00 in BKN
00:50 59.1 °F 54.0 °F 30.09 in SW 7.0 mph 12.0 mph 83% 0.00 in BKN
01:00 58.9 °F 53.7 °F 30.10 in WSW 5.0 mph 12.0 mph 83% 0.00 in BKN
01:10 58.8 °F 53.6 °F 30.10 in SW 3.0 mph 8.0 mph 83% 0.00 in SCT
01:20 58.6 °F 53.1 °F 30.10 in SW 3.0 mph 10.0 mph 82% 0.00 in SCT
01:30 58.7 °F 52.9 °F 30.11 in SW 7.0 mph 13.0 mph 81% 0.00 in SCT
01:40 58.5 °F 52.7 °F 30.11 in WSW 6.0 mph 12.0 mph 81% 0.00 in SCT
01:50 58.4 °F 52.3 °F 30.12 in SW 3.0 mph 12.0 mph 80% 0.00 in SCT
02:00 58.4 °F 51.9 °F 30.12 in SW 3.0 mph 12.0 mph 79% 0.00 in SCT
02:10 58.0 °F 51.5 °F 30.13 in SW 5.0 mph 9.0 mph 79% 0.00 in CLR
02:20 57.8 °F 51.3 °F 30.14 in SSW 2.0 mph 9.0 mph 79% 0.00 in CLR
02:30 57.4 °F 51.3 °F 30.14 in SSE 1.0 mph 10.0 mph 80% 0.00 in CLR
02:40 57.1 °F 51.0 °F 30.15 in Calm   13.0 mph 80% 0.00 in CLR
02:50 56.8 °F 50.7 °F 30.15 in SE 2.0 mph 12.0 mph 80% 0.00 in CLR
03:00 56.3 °F 50.5 °F 30.15 in South 2.0 mph 9.0 mph 81% 0.00 in CLR
03:10 55.9 °F 50.2 °F 30.15 in SE 1.0 mph 8.0 mph 81% 0.00 in CLR
03:20 55.5 °F 49.1 °F 30.16 in SW 1.0 mph 5.0 mph 79% 0.00 in CLR
03:30 55.2 °F 48.5 °F 30.16 in Calm   7.0 mph 78% 0.00 in CLR
03:40 54.8 °F 48.1 °F 30.16 in West 1.0 mph 4.0 mph 78% 0.00 in CLR
03:50 54.4 °F 47.4 °F 30.16 in SW 2.0 mph 5.0 mph 77% 0.00 in CLR
04:00 54.0 °F 46.9 °F 30.17 in SSW 1.0 mph 5.0 mph 77% 0.00 in CLR
04:10 53.7 °F 46.7 °F 30.18 in SSW 2.0 mph 7.0 mph 77% 0.00 in CLR
04:20 53.5 °F 46.8 °F 30.18 in SSW 3.0 mph 9.0 mph 78% 0.00 in CLR
04:30 53.1 °F 46.4 °F 30.19 in NNW 2.0 mph 6.0 mph 78% 0.00 in CLR
04:40 51.3 °F 45.7 °F 30.21 in NNE 6.0 mph 16.0 mph 81% 0.00 in CLR
04:50 49.8 °F 44.5 °F 30.21 in East 1.0 mph 10.0 mph 82% 0.00 in CLR
05:00 49.2 °F 43.9 °F 30.23 in NNE 2.0 mph 6.0 mph 82% 0.00 in CLR
05:10 48.9 °F 43.7 °F 30.23 in North 2.0 mph 6.0 mph 82% 0.00 in FEW
05:20 48.4 °F 42.8 °F 30.24 in North 2.0 mph 8.0 mph 81% 0.00 in FEW
05:30 47.7 °F 42.2 °F 30.25 in North 2.0 mph 6.0 mph 81% 0.00 in FEW
05:40 47.3 °F 41.8 °F 30.25 in North 3.0 mph 8.0 mph 81% 0.00 in FEW
05:50 46.7 °F 41.2 °F 30.26 in North 2.0 mph 10.0 mph 81% 0.00 in FEW
06:00 46.5 °F 40.7 °F 30.27 in NNW 3.0 mph 12.0 mph 80% 0.00 in FEW
06:10 46.1 °F 40.0 °F 30.28 in NNW 2.0 mph 8.0 mph 79% 0.00 in CLR
06:20 45.7 °F 39.6 °F 30.29 in NNW 1.0 mph 10.0 mph 79% 0.00 in CLR
06:30 45.3 °F 38.8 °F 30.29 in NNE 2.0 mph 10.0 mph 78% 0.00 in CLR
06:40 44.9 °F 38.1 °F 30.30 in NNE 2.0 mph 9.0 mph 77% 0.00 in CLR
06:50 44.5 °F 37.1 °F 30.30 in NNW 3.0 mph 9.0 mph 75% 0.00 in CLR
07:00 44.2 °F 36.4 °F 30.31 in North 3.0 mph 10.0 mph 74% 0.00 in CLR
07:10 43.7 °F 36.0 °F 30.32 in North 3.0 mph 14.0 mph 74% 0.00 in CLR
07:20 43.6 °F 35.5 °F 30.32 in NNW 1.0 mph 9.0 mph 73% 0.00 in CLR
07:30 43.3 °F 34.9 °F 30.33 in NNW 5.0 mph 12.0 mph 72% 0.00 in CLR
07:40 43.1 °F 34.4 °F 30.34 in North 3.0 mph 12.0 mph 71% 0.00 in CLR
07:50 42.8 °F 34.4 °F 30.35 in North 5.0 mph 10.0 mph 72% 0.00 in CLR
08:00 42.6 °F 34.2 °F 30.35 in North 3.0 mph 13.0 mph 72% 0.00 in CLR
08:10 42.3 °F 33.9 °F 30.36 in North 3.0 mph 12.0 mph 72% 0.00 in FEW
08:20 42.0 °F 33.6 °F 30.37 in NNW 3.0 mph 10.0 mph 72% 0.00 in FEW
08:30 41.9 °F 33.1 °F 30.38 in NNE 5.0 mph 13.0 mph 71% 0.00 in FEW
08:40 41.9 °F 32.8 °F 30.38 in North 3.0 mph 9.0 mph 70% 0.00 in FEW
08:50 41.8 °F 32.0 °F 30.39 in NNW 3.0 mph 10.0 mph 68% 0.00 in FEW
09:00 41.9 °F 31.7 °F 30.39 in North 3.0 mph 14.0 mph 67% 0.00 in FEW
09:10 41.9 °F 31.7 °F 30.40 in NNE 6.0 mph 14.0 mph 67% 0.00 in FEW
09:20 41.9 °F 32.1 °F 30.41 in North 3.0 mph 13.0 mph 68% 0.00 in FEW
09:30 42.3 °F 31.7 °F 30.41 in North 5.0 mph 15.0 mph 66% 0.00 in FEW
09:40 42.4 °F 31.9 °F 30.42 in NNW 3.0 mph 13.0 mph 66% 0.00 in FEW
09:50 42.7 °F 31.4 °F 30.42 in NNW 3.0 mph 15.0 mph 64% 0.00 in FEW
10:00 42.7 °F 31.0 °F 30.42 in NNW 3.0 mph 13.0 mph 63% 0.00 in FEW
10:10 42.5 °F 30.4 °F 30.43 in North 6.0 mph 13.0 mph 62% 0.00 in CLR
10:20 42.5 °F 30.4 °F 30.43 in NNE 5.0 mph 16.0 mph 62% 0.00 in CLR
10:30 42.7 °F 30.2 °F 30.43 in North 3.0 mph 12.0 mph 61% 0.00 in CLR
10:40 42.9 °F 30.8 °F 30.43 in NNW 2.0 mph 12.0 mph 62% 0.00 in CLR
10:50 43.1 °F 30.6 °F 30.43 in NNW 6.0 mph 12.0 mph 61% 0.00 in CLR
11:00 43.1 °F 31.0 °F 30.43 in North 5.0 mph 12.0 mph 62% 0.00 in CLR
11:10 43.0 °F 30.5 °F 30.43 in NNW 6.0 mph 12.0 mph 61% 0.00 in FEW
11:20 43.2 °F 30.2 °F 30.43 in NNE 3.0 mph 8.0 mph 60% 0.00 in FEW
11:30 43.1 °F 28.9 °F 30.44 in NW 2.0 mph 10.0 mph 57% 0.00 in FEW
11:40 43.1 °F 28.9 °F 30.43 in NNE 3.0 mph 12.0 mph 57% 0.00 in FEW
11:50 43.3 °F 28.6 °F 30.43 in NW 3.0 mph 9.0 mph 56% 0.00 in FEW
12:00 43.6 °F 28.4 °F 30.43 in NNE 5.0 mph 13.0 mph 55% 0.00 in FEW
12:10 43.3 °F 27.3 °F 30.43 in NNW 5.0 mph 14.0 mph 53% 0.00 in FEW
12:20 42.9 °F 26.5 °F 30.43 in NE 2.0 mph 12.0 mph 52% 0.00 in FEW
12:30 42.6 °F 25.7 °F 30.43 in NW 5.0 mph 13.0 mph 51% 0.00 in FEW
12:40 42.5 °F 25.1 °F 30.44 in NW 3.0 mph 14.0 mph 50% 0.00 in FEW
12:50 42.4 °F 24.6 °F 30.44 in North 3.0 mph 13.0 mph 49% 0.00 in FEW
13:00 42.0 °F 23.7 °F 30.45 in NNE 6.0 mph 15.0 mph 48% 0.00 in FEW
13:10 42.0 °F 24.2 °F 30.44 in North 5.0 mph 13.0 mph 49% 0.00 in CLR
13:20 42.3 °F 24.5 °F 30.45 in NW 5.0 mph 12.0 mph 49% 0.00 in CLR
13:30 42.1 °F 23.8 °F 30.45 in North 5.0 mph 12.0 mph 48% 0.00 in CLR
13:40 42.2 °F 22.9 °F 30.46 in North 3.0 mph 9.0 mph 46% 0.00 in CLR
13:50 41.7 °F 21.4 °F 30.46 in North 5.0 mph 13.0 mph 44% 0.00 in CLR
14:00 41.4 °F 21.6 °F 30.46 in NNW 5.0 mph 12.0 mph 45% 0.00 in CLR
14:10 41.4 °F 21.6 °F 30.47 in NNW 1.0 mph 14.0 mph 45% 0.00 in CLR
14:20 41.2 °F 20.9 °F 30.48 in West 2.0 mph 10.0 mph 44% 0.00 in CLR
14:30 41.1 °F 21.3 °F 30.48 in NNW 3.0 mph 12.0 mph 45% 0.00 in CLR
14:40 41.2 °F 21.4 °F 30.48 in NNW 6.0 mph 10.0 mph 45% 0.00 in CLR
14:50 41.1 °F 21.9 °F 30.49 in NNW 1.0 mph 9.0 mph 46% 0.00 in CLR
15:00 41.1 °F 21.3 °F 30.49 in North 2.0 mph 8.0 mph 45% 0.00 in CLR
15:10 40.9 °F 20.6 °F 30.50 in North 3.0 mph 8.0 mph 44% 0.00 in CLR
15:20 40.7 °F 22.5 °F 30.50 in NW 1.0 mph 6.0 mph 48% 0.00 in CLR
15:30 40.5 °F 20.8 °F 30.50 in NNW 5.0 mph 10.0 mph 45% 0.00 in CLR
15:40 40.3 °F 21.1 °F 30.51 in North 2.0 mph 8.0 mph 46% 0.00 in CLR
15:50 40.1 °F 21.0 °F 30.51 in NNE 3.0 mph 12.0 mph 46% 0.00 in CLR
16:00 39.7 °F 20.1 °F 30.52 in NNW 5.0 mph 15.0 mph 45% 0.00 in CLR
16:10 38.9 °F 18.8 °F 30.52 in North 6.0 mph 15.0 mph 44% 0.00 in CLR
16:20 38.3 °F 19.3 °F 30.53 in North 2.0 mph 9.0 mph 46% 0.00 in CLR
16:30 37.8 °F 19.3 °F 30.54 in NNW 5.0 mph 9.0 mph 47% 0.00 in CLR
16:40 37.3 °F 19.4 °F 30.55 in NNW 1.0 mph 8.0 mph 48% 0.00 in CLR
16:50 36.9 °F 18.5 °F 30.55 in North 2.0 mph 9.0 mph 47% 0.00 in CLR
17:00 36.5 °F 18.2 °F 30.56 in North 2.0 mph 8.0 mph 47% 0.00 in CLR
17:10 36.2 °F 18.4 °F 30.56 in NE 1.0 mph 7.0 mph 48% 0.00 in CLR
17:20 35.9 °F 18.1 °F 30.57 in WNW 3.0 mph 9.0 mph 48% 0.00 in CLR
17:30 35.7 °F 18.4 °F 30.58 in NE 2.0 mph 8.0 mph 49% 0.00 in CLR
17:40 35.7 °F 18.3 °F 30.59 in ENE 2.0 mph 7.0 mph 49% 0.00 in CLR
17:50 35.5 °F 18.7 °F 30.59 in NE 1.0 mph 10.0 mph 50% 0.00 in CLR
18:00 35.2 °F 17.9 °F 30.60 in North 6.0 mph 13.0 mph 49% 0.00 in CLR
18:10 35.0 °F 18.2 °F 30.61 in NNE 7.0 mph 15.0 mph 50% 0.00 in CLR
18:20 34.7 °F 18.4 °F 30.61 in North 5.0 mph 12.0 mph 51% 0.00 in CLR
18:30 34.3 °F 18.1 °F 30.61 in NNW 5.0 mph 15.0 mph 51% 0.00 in CLR
18:40 34.0 °F 17.7 °F 30.61 in North 3.0 mph 10.0 mph 51% 0.00 in CLR
18:50 33.7 °F 17.9 °F 30.61 in NNE 5.0 mph 12.0 mph 52% 0.00 in CLR
19:00 33.4 °F 17.6 °F 30.61 in North 3.0 mph 9.0 mph 52% 0.00 in CLR
19:10 33.1 °F 18.3 °F 30.63 in NNW 2.0 mph 9.0 mph 54% 0.00 in CLR
19:20 32.8 °F 18.4 °F 30.63 in North 3.0 mph 10.0 mph 55% 0.00 in CLR
19:30 32.5 °F 17.7 °F 30.63 in NNW 3.0 mph 12.0 mph 54% 0.00 in CLR
19:40 32.3 °F 17.5 °F 30.63 in North 3.0 mph 16.0 mph 54% 0.00 in CLR
19:50 32.2 °F 17.8 °F 30.64 in North 6.0 mph 16.0 mph 55% 0.00 in CLR
20:00 32.0 °F 17.2 °F 30.64 in North 2.0 mph 16.0 mph 54% 0.00 in CLR
20:10 31.8 °F 17.9 °F 30.65 in NNE 1.0 mph 12.0 mph 56% 0.00 in CLR
20:20 31.6 °F 16.8 °F 30.66 in NNW 2.0 mph 12.0 mph 54% 0.00 in CLR
20:30 31.4 °F 16.6 °F 30.66 in NNW 2.0 mph 10.0 mph 54% 0.00 in CLR
20:40 31.2 °F 16.9 °F 30.67 in NNW 3.0 mph 9.0 mph 55% 0.00 in CLR
20:50 31.1 °F 17.2 °F 30.67 in NNW 2.0 mph 12.0 mph 56% 0.00 in CLR
21:00 31.0 °F 16.7 °F 30.67 in North 1.0 mph 9.0 mph 55% 0.00 in CLR
21:10 30.8 °F 16.5 °F 30.67 in NNW 3.0 mph 12.0 mph 55% 0.00 in CLR
21:20 30.7 °F 16.8 °F 30.68 in North 2.0 mph 8.0 mph 56% 0.00 in CLR
21:30 30.6 °F 16.7 °F 30.68 in Calm   6.0 mph 56% 0.00 in CLR
21:40 30.5 °F 16.7 °F 30.68 in NNW 1.0 mph 7.0 mph 56% 0.00 in CLR
21:50 30.3 °F 16.9 °F 30.68 in NNW 2.0 mph 4.0 mph 57% 0.00 in CLR
22:00 30.2 °F 16.8 °F 30.69 in North 2.0 mph 6.0 mph 57% 0.00 in CLR
22:10 30.1 °F 16.7 °F 30.69 in NNW 1.0 mph 6.0 mph 57% 0.00 in CLR
22:20 29.9 °F 16.5 °F 30.69 in North 1.0 mph 8.0 mph 57% 0.00 in CLR
22:30 29.8 °F 16.4 °F 30.69 in North 1.0 mph 7.0 mph 57% 0.00 in CLR
22:40 29.6 °F 16.2 °F 30.68 in NNW 1.0 mph 6.0 mph 57% 0.00 in CLR
22:50 29.5 °F 15.7 °F 30.69 in NNW 2.0 mph 5.0 mph 56% 0.00 in CLR
23:00 29.4 °F 16.0 °F 30.69 in Calm   3.0 mph 57% 0.00 in CLR
23:10 29.3 °F 16.3 °F 30.69 in Calm   4.0 mph 58% 0.00 in CLR
23:20 29.0 °F 16.5 °F 30.69 in North 1.0 mph 4.0 mph 59% 0.00 in CLR
23:30 28.8 °F 16.3 °F 30.70 in Calm   5.0 mph 59% 0.00 in CLR
23:40 28.8 °F 16.3 °F 30.70 in NNW 1.0 mph 2.0 mph 59% 0.00 in CLR
23:50 28.7 °F 15.8 °F 30.70 in Calm   5.0 mph 58% 0.00 in CLR
TarryTown NY Weather
Compliments of Weather Underground - 1.75 mb